createdAt,value
2022-12-08T00:01:00.039Z,22.10
2022-12-08T00:03:26.756Z,22.20
2022-12-08T00:05:53.161Z,22.51
2022-12-08T00:08:19.506Z,22.90
2022-12-08T00:10:49.903Z,22.84
2022-12-08T00:13:16.401Z,22.56
2022-12-08T00:15:42.676Z,23.07
2022-12-08T00:18:09.029Z,22.47
2022-12-08T00:20:35.275Z,22.30
2022-12-08T00:23:01.514Z,22.54
2022-12-08T00:25:27.782Z,22.54
2022-12-08T00:27:54.051Z,22.77
2022-12-08T00:30:20.310Z,23.12
2022-12-08T00:32:46.589Z,22.44
2022-12-08T00:35:12.826Z,22.28
2022-12-08T00:37:39.081Z,22.43
2022-12-08T00:40:05.594Z,22.65
2022-12-08T00:42:32.142Z,22.97
2022-12-08T00:44:58.399Z,22.87
2022-12-08T00:47:25.109Z,22.76
2022-12-08T00:49:51.521Z,22.80
2022-12-08T00:52:17.792Z,21.90
2022-12-08T00:54:44.064Z,22.46
2022-12-08T00:57:10.332Z,23.11
2022-12-08T00:59:36.695Z,22.66
2022-12-08T01:02:02.981Z,22.83
2022-12-08T01:04:29.316Z,23.29
2022-12-08T01:06:55.565Z,22.98
2022-12-08T01:09:21.807Z,22.41
2022-12-08T01:11:48.050Z,22.74
2022-12-08T01:14:14.312Z,23.24
2022-12-08T01:16:40.632Z,22.63
2022-12-08T01:19:06.909Z,22.93
2022-12-08T01:21:33.172Z,22.49
2022-12-08T01:23:59.444Z,22.61
2022-12-08T01:26:25.685Z,22.44
2022-12-08T01:28:51.968Z,23.11
2022-12-08T01:31:18.263Z,22.74
2022-12-08T01:33:44.628Z,22.70
2022-12-08T01:36:10.887Z,22.81
2022-12-08T01:38:37.159Z,23.18
2022-12-08T01:41:03.449Z,22.54
2022-12-08T01:43:29.714Z,22.69
2022-12-08T01:45:55.978Z,23.16
2022-12-08T01:48:22.338Z,23.18
2022-12-08T01:50:48.613Z,23.32
2022-12-08T01:53:14.869Z,23.01
2022-12-08T01:55:41.255Z,24.06
2022-12-08T01:58:07.546Z,23.20
2022-12-08T02:00:33.785Z,22.83
2022-12-08T02:03:00.170Z,22.66
2022-12-08T02:05:26.490Z,23.21
2022-12-08T02:07:52.826Z,23.54
2022-12-08T02:10:19.181Z,23.68
2022-12-08T02:12:45.466Z,23.70
2022-12-08T02:15:11.731Z,22.87
2022-12-08T02:17:37.986Z,23.75
2022-12-08T02:20:04.423Z,22.94
2022-12-08T02:22:30.829Z,22.99
2022-12-08T02:24:57.101Z,23.01
2022-12-08T02:27:23.350Z,23.22
2022-12-08T02:29:49.602Z,23.73
2022-12-08T02:32:15.846Z,23.50
2022-12-08T02:34:42.150Z,23.22
2022-12-08T02:37:08.406Z,23.32
2022-12-08T02:39:34.653Z,23.71
2022-12-08T02:42:00.917Z,23.41
2022-12-08T02:44:27.180Z,23.46
2022-12-08T02:46:53.439Z,23.55
2022-12-08T02:49:19.722Z,23.30
2022-12-08T02:51:45.996Z,23.75
2022-12-08T02:54:12.257Z,23.98
2022-12-08T02:56:38.510Z,23.94
2022-12-08T02:59:04.805Z,23.45
2022-12-08T03:01:31.127Z,23.84
2022-12-08T03:03:57.488Z,24.14
2022-12-08T03:06:23.767Z,24.41
2022-12-08T03:08:50.048Z,24.73
2022-12-08T03:11:16.288Z,24.52
2022-12-08T03:13:42.545Z,24.45
2022-12-08T03:16:08.929Z,25.08
2022-12-08T03:18:35.292Z,24.30
2022-12-08T03:21:01.682Z,24.79
2022-12-08T03:23:27.962Z,24.18
2022-12-08T03:25:54.330Z,24.36
2022-12-08T03:28:20.686Z,24.45
2022-12-08T03:30:47.030Z,24.67
2022-12-08T03:33:13.303Z,24.40
2022-12-08T03:35:39.579Z,24.12
2022-12-08T03:38:05.834Z,24.66
2022-12-08T03:40:32.083Z,24.22
2022-12-08T03:42:58.361Z,25.05
2022-12-08T03:45:24.627Z,26.07
2022-12-08T03:47:50.902Z,26.08
2022-12-08T03:50:17.159Z,24.77
2022-12-08T03:52:43.419Z,25.13
2022-12-08T03:55:09.682Z,25.75
2022-12-08T03:57:35.955Z,24.57
2022-12-08T04:00:02.797Z,25.27
2022-12-08T04:02:29.304Z,24.93
2022-12-08T04:04:55.649Z,24.59
2022-12-08T04:07:21.940Z,24.59
2022-12-08T04:09:48.183Z,24.13
2022-12-08T04:12:14.455Z,24.75
2022-12-08T04:14:40.730Z,25.22
2022-12-08T04:17:07.010Z,24.79
2022-12-08T04:19:33.289Z,24.63
2022-12-08T04:21:59.549Z,24.53
2022-12-08T04:24:25.815Z,24.57
2022-12-08T04:26:52.101Z,24.39
2022-12-08T04:29:18.379Z,25.77
2022-12-08T04:31:44.746Z,24.39
2022-12-08T04:34:11.068Z,24.89
2022-12-08T04:36:37.326Z,24.69
2022-12-08T04:39:03.607Z,24.84
2022-12-08T04:41:29.865Z,24.58
2022-12-08T04:43:56.157Z,24.24
2022-12-08T04:46:22.473Z,24.61
2022-12-08T04:48:48.753Z,24.43
2022-12-08T04:51:15.030Z,25.25
2022-12-08T04:53:46.307Z,24.91
2022-12-08T04:56:13.091Z,24.97
2022-12-08T04:58:39.363Z,24.53
2022-12-08T05:01:05.657Z,24.84
2022-12-08T05:03:31.968Z,25.47
2022-12-08T05:05:58.233Z,25.30
2022-12-08T05:08:24.560Z,25.45
2022-12-08T05:10:50.860Z,25.12
2022-12-08T05:13:17.142Z,25.13
2022-12-08T05:15:43.397Z,24.90
2022-12-08T05:18:09.645Z,25.29
2022-12-08T05:20:35.924Z,25.47
2022-12-08T05:23:02.169Z,24.84
2022-12-08T05:25:28.460Z,26.02
2022-12-08T05:28:06.159Z,25.52
2022-12-08T05:30:37.862Z,25.80
2022-12-08T05:33:04.112Z,24.89
2022-12-08T05:35:30.358Z,25.69
2022-12-08T05:37:56.657Z,25.85
2022-12-08T05:40:22.907Z,26.11
2022-12-08T05:42:49.162Z,25.63
2022-12-08T05:45:15.452Z,25.37
2022-12-08T05:47:41.701Z,25.37
2022-12-08T05:50:07.996Z,25.22
2022-12-08T05:52:34.306Z,25.27
2022-12-08T05:55:00.571Z,25.85
2022-12-08T05:57:26.828Z,25.17
2022-12-08T05:59:53.072Z,25.83
2022-12-08T06:02:19.428Z,25.92
2022-12-08T06:04:45.774Z,26.99
2022-12-08T06:07:16.036Z,25.44
2022-12-08T06:09:42.586Z,26.24
2022-12-08T06:12:08.838Z,25.85
2022-12-08T06:14:35.103Z,25.33
2022-12-08T06:17:01.412Z,25.23
2022-12-08T06:19:27.756Z,25.66
2022-12-08T06:21:54.037Z,25.27
2022-12-08T06:24:20.282Z,24.86
2022-12-08T06:26:46.534Z,24.49
2022-12-08T06:29:12.821Z,25.69
2022-12-08T06:31:39.203Z,24.80
2022-12-08T06:34:05.559Z,25.10
2022-12-08T06:36:31.848Z,24.33
2022-12-08T06:38:58.113Z,24.99
2022-12-08T06:41:24.373Z,24.10
2022-12-08T06:43:50.634Z,25.14
2022-12-08T06:46:17.027Z,23.98
2022-12-08T06:48:43.381Z,23.19
2022-12-08T06:51:09.654Z,22.86
2022-12-08T06:53:35.956Z,22.46
2022-12-08T06:56:02.229Z,23.16
2022-12-08T06:58:28.496Z,22.85
2022-12-08T07:00:55.050Z,22.18
2022-12-08T07:03:21.369Z,23.01
2022-12-08T07:05:47.679Z,22.93
2022-12-08T07:08:14.068Z,23.52
2022-12-08T07:10:40.385Z,24.01
2022-12-08T07:13:06.652Z,23.77
2022-12-08T07:15:32.904Z,23.36
2022-12-08T07:18:00.405Z,23.43
2022-12-08T07:20:26.939Z,22.97
2022-12-08T07:22:53.209Z,21.93
2022-12-08T07:25:19.472Z,22.42
2022-12-08T07:27:45.826Z,22.05
2022-12-08T07:30:12.101Z,22.04
2022-12-08T07:32:38.362Z,21.74
2022-12-08T07:35:04.610Z,21.46
2022-12-08T07:37:30.872Z,21.62
2022-12-08T07:39:57.170Z,21.73
2022-12-08T07:42:23.430Z,21.95
2022-12-08T07:44:49.709Z,22.43
2022-12-08T07:47:15.973Z,21.78
2022-12-08T07:49:42.246Z,22.53
2022-12-08T07:52:08.509Z,22.14
2022-12-08T07:54:34.780Z,22.09
2022-12-08T07:57:01.044Z,22.88
2022-12-08T07:59:27.309Z,23.43
2022-12-08T08:02:13.470Z,22.44
2022-12-08T08:04:39.844Z,22.88
2022-12-08T08:07:06.155Z,23.45
2022-12-08T08:09:32.426Z,22.92
2022-12-08T08:12:29.098Z,23.35
2022-12-08T08:14:44.945Z,22.36
2022-12-08T08:17:11.439Z,22.52
2022-12-08T08:19:37.819Z,22.36
2022-12-08T08:22:04.076Z,23.60
2022-12-08T08:24:30.357Z,22.26
2022-12-08T08:26:56.601Z,23.06
2022-12-08T08:29:22.950Z,23.05
2022-12-08T08:31:49.259Z,23.21
2022-12-08T08:34:15.559Z,22.83
2022-12-08T08:36:41.897Z,22.65
2022-12-08T08:39:08.213Z,22.43
2022-12-08T08:41:34.466Z,21.68
2022-12-08T08:44:00.722Z,22.28
2022-12-08T08:46:27.188Z,22.16
2022-12-08T08:48:53.475Z,22.29
2022-12-08T08:51:19.828Z,22.83
2022-12-08T08:53:46.098Z,23.50
2022-12-08T08:56:12.432Z,23.08
2022-12-08T08:58:38.715Z,23.38
2022-12-08T09:01:04.988Z,22.46
2022-12-08T09:03:31.261Z,22.50
2022-12-08T09:05:57.614Z,22.33
2022-12-08T09:08:24.013Z,23.02
2022-12-08T09:10:50.376Z,24.08
2022-12-08T09:13:16.646Z,23.37
2022-12-08T09:15:42.966Z,23.10
2022-12-08T09:18:09.335Z,22.95
2022-12-08T09:20:35.601Z,22.83
2022-12-08T09:23:01.881Z,23.41
2022-12-08T09:25:28.137Z,22.97
2022-12-08T09:27:54.432Z,23.01
2022-12-08T09:30:20.718Z,23.76
2022-12-08T09:32:47.075Z,22.55
2022-12-08T09:35:13.337Z,22.98
2022-12-08T09:37:39.643Z,23.01
2022-12-08T09:40:06.073Z,22.40
2022-12-08T09:42:32.548Z,22.47
2022-12-08T09:44:58.830Z,23.10
2022-12-08T09:47:26.123Z,22.27
2022-12-08T09:49:54.649Z,22.25
2022-12-08T09:52:20.988Z,23.48
2022-12-08T09:54:47.374Z,22.89
2022-12-08T09:57:13.688Z,22.29
2022-12-08T09:59:40.037Z,22.93
2022-12-08T10:02:06.409Z,22.84
2022-12-08T10:04:32.850Z,22.75
2022-12-08T10:06:59.251Z,22.83
2022-12-08T10:09:25.505Z,23.45
2022-12-08T10:11:51.765Z,22.23
2022-12-08T10:14:18.024Z,21.69
2022-12-08T10:16:44.367Z,21.92
2022-12-08T10:19:10.687Z,21.60
2022-12-08T10:21:36.961Z,22.35
2022-12-08T10:24:03.220Z,21.56
2022-12-08T10:26:29.503Z,21.54
2022-12-08T10:28:55.816Z,21.55
2022-12-08T10:31:22.166Z,21.60
2022-12-08T10:33:48.479Z,21.76
2022-12-08T10:36:14.736Z,21.60
2022-12-08T10:38:41.009Z,21.64
2022-12-08T10:41:07.297Z,20.82
2022-12-08T10:43:33.565Z,21.18
2022-12-08T10:45:59.827Z,20.44
2022-12-08T10:48:26.100Z,21.10
2022-12-08T10:50:52.367Z,20.73
2022-12-08T10:53:18.645Z,21.01
2022-12-08T10:55:44.914Z,21.42
2022-12-08T10:58:11.208Z,21.47
2022-12-08T11:00:37.674Z,21.23
2022-12-08T11:03:04.129Z,20.77
2022-12-08T11:05:30.498Z,20.53
2022-12-08T11:07:56.772Z,20.49
2022-12-08T11:10:23.337Z,20.57
2022-12-08T11:12:49.643Z,20.89
2022-12-08T11:15:15.922Z,22.00
2022-12-08T11:17:42.188Z,21.25
2022-12-08T11:20:08.845Z,21.43
2022-12-08T11:22:35.318Z,21.31
2022-12-08T11:25:01.581Z,21.20
2022-12-08T11:27:27.854Z,20.64
2022-12-08T11:29:54.129Z,20.43
2022-12-08T11:32:20.457Z,20.75
2022-12-08T11:34:46.727Z,20.96
2022-12-08T11:37:13.125Z,20.57
2022-12-08T11:39:39.506Z,20.47
2022-12-08T11:42:05.755Z,20.30
2022-12-08T11:44:32.043Z,20.26
2022-12-08T11:46:58.318Z,20.05
2022-12-08T11:49:24.586Z,20.97
2022-12-08T11:51:50.856Z,20.43
2022-12-08T11:54:17.122Z,20.10
2022-12-08T11:56:43.391Z,21.00
2022-12-08T11:59:10.000Z,19.79
2022-12-08T12:01:42.200Z,20.09
2022-12-08T12:04:08.932Z,20.20
2022-12-08T12:06:53.819Z,20.73
2022-12-08T12:09:21.347Z,20.06
2022-12-08T12:11:47.624Z,19.25
2022-12-08T12:14:14.174Z,19.86
2022-12-08T12:16:40.558Z,19.34
2022-12-08T12:19:06.883Z,19.65
2022-12-08T12:21:33.131Z,20.20
2022-12-08T12:23:59.410Z,19.78
2022-12-08T12:26:25.673Z,19.73
2022-12-08T12:28:51.949Z,19.17
2022-12-08T12:31:18.287Z,18.72
2022-12-08T12:33:44.691Z,18.70
2022-12-08T12:36:10.948Z,18.64
2022-12-08T12:38:37.202Z,18.36
2022-12-08T12:41:03.466Z,18.19
2022-12-08T12:43:29.715Z,18.09
2022-12-08T12:45:56.052Z,18.70
2022-12-08T12:48:22.327Z,18.35
2022-12-08T12:50:48.597Z,18.37
2022-12-08T12:53:14.899Z,18.51
2022-12-08T12:55:41.171Z,18.70
2022-12-08T12:58:07.459Z,18.18
2022-12-08T13:00:33.754Z,18.33
2022-12-08T13:03:00.061Z,17.73
2022-12-08T13:05:26.447Z,18.06
2022-12-08T13:07:52.842Z,18.43
2022-12-08T13:10:19.197Z,18.09
2022-12-08T13:12:45.492Z,17.97
2022-12-08T13:15:11.743Z,19.15
2022-12-08T13:17:38.029Z,18.16
2022-12-08T13:20:04.573Z,17.85
2022-12-08T13:22:31.096Z,18.43
2022-12-08T13:24:57.369Z,18.26
2022-12-08T13:27:23.643Z,18.30
2022-12-08T13:29:49.892Z,17.88
2022-12-08T13:32:16.143Z,18.05
2022-12-08T13:34:42.419Z,17.67
2022-12-08T13:37:08.692Z,17.39
2022-12-08T13:39:34.983Z,17.65
2022-12-08T13:42:01.256Z,18.32
2022-12-08T13:58:18.913Z,18.76
2022-12-08T14:00:45.196Z,18.84
2022-12-08T14:03:11.742Z,19.06
2022-12-08T14:06:10.618Z,18.84
2022-12-08T14:08:50.781Z,18.96
2022-12-08T14:11:10.636Z,19.35
2022-12-08T14:13:36.900Z,19.24
2022-12-08T14:16:03.230Z,18.76
2022-12-08T14:18:29.901Z,19.40
2022-12-08T14:21:19.864Z,19.24
2022-12-08T14:23:42.429Z,18.85
2022-12-08T14:26:08.723Z,19.04
2022-12-08T14:28:37.807Z,19.22
2022-12-08T14:31:07.823Z,19.06
2022-12-08T14:33:34.130Z,19.44
2022-12-08T14:36:00.450Z,18.42
2022-12-08T14:38:26.802Z,18.77
2022-12-08T14:40:53.106Z,19.57
2022-12-08T14:43:19.382Z,19.36
2022-12-08T14:45:45.682Z,19.04
2022-12-08T14:48:11.957Z,19.48
2022-12-08T14:50:38.205Z,18.75
2022-12-08T14:53:04.471Z,18.97
2022-12-08T14:55:30.738Z,17.64
2022-12-08T14:57:57.035Z,18.37
2022-12-08T15:00:23.314Z,19.15
2022-12-08T15:02:49.602Z,19.43
2022-12-08T15:05:15.966Z,18.87
2022-12-08T15:07:42.354Z,18.77
2022-12-08T15:10:08.772Z,19.10
2022-12-08T15:12:35.263Z,19.08
2022-12-08T15:15:01.544Z,19.14
2022-12-08T15:17:27.806Z,19.75
2022-12-08T15:19:54.135Z,19.65
2022-12-08T15:22:20.446Z,19.69
2022-12-08T15:24:46.745Z,20.00
2022-12-08T15:27:13.217Z,19.94
2022-12-08T15:29:39.494Z,19.42
2022-12-08T15:32:05.745Z,19.76
2022-12-08T15:34:32.020Z,19.95
2022-12-08T15:36:58.303Z,19.75
2022-12-08T15:39:24.580Z,19.27
2022-12-08T15:41:50.843Z,19.92
2022-12-08T15:44:17.235Z,20.04
2022-12-08T15:46:43.599Z,20.75
2022-12-08T15:49:09.924Z,20.92
2022-12-08T15:51:36.185Z,20.54
2022-12-08T15:54:02.479Z,20.44
2022-12-08T15:56:28.978Z,20.17
2022-12-08T15:58:56.961Z,20.06
2022-12-08T16:01:23.982Z,20.45
2022-12-08T16:09:23.147Z,21.90
2022-12-08T16:12:05.727Z,22.17
2022-12-08T16:15:39.732Z,22.90
2022-12-08T16:17:19.443Z,23.32
2022-12-08T16:19:45.729Z,24.41
2022-12-08T16:25:04.973Z,23.16
2022-12-08T16:30:27.488Z,22.10
2022-12-08T16:32:53.751Z,21.91
2022-12-08T16:35:20.048Z,21.80
2022-12-08T16:37:46.321Z,23.69
2022-12-08T16:40:12.716Z,24.58
2022-12-08T16:42:39.069Z,23.65
2022-12-08T16:45:05.581Z,22.37
2022-12-08T16:47:32.180Z,22.40
2022-12-08T16:49:58.434Z,22.85
2022-12-08T16:52:24.713Z,22.85
2022-12-08T16:54:50.961Z,26.93
2022-12-08T16:57:17.235Z,29.21
2022-12-08T16:59:43.495Z,31.04
2022-12-08T17:02:15.071Z,30.71
2022-12-08T17:04:42.706Z,29.40
2022-12-08T17:07:09.040Z,27.21
2022-12-08T17:09:35.290Z,26.04
2022-12-08T17:12:03.985Z,25.76
2022-12-08T17:14:30.617Z,26.54
2022-12-08T17:16:56.976Z,26.80
2022-12-08T17:19:23.328Z,27.77
2022-12-08T17:21:49.624Z,27.84
2022-12-08T17:24:21.657Z,25.23
2022-12-08T17:26:48.309Z,24.22
2022-12-08T17:29:14.590Z,24.22
2022-12-08T17:31:40.889Z,24.08
2022-12-08T17:34:07.158Z,23.84
2022-12-08T17:36:33.430Z,23.00
2022-12-08T17:38:59.709Z,23.12
2022-12-08T17:41:25.985Z,23.18
2022-12-08T17:43:52.237Z,23.33
2022-12-08T17:46:18.631Z,22.80
2022-12-08T17:48:44.903Z,23.82
2022-12-08T17:51:11.194Z,24.51
2022-12-08T17:53:37.765Z,25.78
2022-12-08T17:56:04.058Z,28.65
2022-12-08T17:58:30.315Z,25.60
2022-12-08T18:00:56.692Z,25.49
2022-12-08T18:03:22.976Z,24.38
2022-12-08T18:05:49.292Z,24.75
2022-12-08T18:08:15.635Z,25.22
2022-12-08T18:10:41.986Z,24.51
2022-12-08T18:13:08.268Z,24.38
2022-12-08T18:15:38.996Z,24.39
2022-12-08T18:18:05.662Z,24.27
2022-12-08T18:20:31.952Z,24.27
2022-12-08T18:22:58.222Z,23.15
2022-12-08T18:25:24.518Z,22.98
2022-12-08T18:27:50.797Z,23.27
2022-12-08T18:30:17.075Z,23.26
2022-12-08T18:32:43.345Z,24.70
2022-12-08T18:35:09.593Z,25.69
2022-12-08T18:37:35.885Z,25.30
2022-12-08T18:40:02.304Z,25.05
2022-12-08T18:42:28.687Z,26.41
2022-12-08T18:44:55.010Z,26.33
2022-12-08T18:47:21.309Z,25.62
2022-12-08T18:49:47.593Z,26.26
2022-12-08T18:52:13.873Z,25.77
2022-12-08T18:55:05.097Z,24.59
2022-12-08T18:57:26.378Z,24.83
2022-12-08T18:59:52.701Z,25.86
2022-12-08T19:02:19.020Z,26.15
2022-12-08T19:04:45.333Z,25.69
2022-12-08T19:07:11.598Z,26.37
2022-12-08T19:09:37.867Z,27.28
2022-12-08T19:12:04.118Z,28.40
2022-12-08T19:14:30.455Z,28.89
2022-12-08T19:16:56.778Z,28.43
2022-12-08T19:19:23.033Z,27.89
2022-12-08T19:21:49.281Z,27.64
2022-12-08T19:24:15.565Z,27.38
2022-12-08T19:26:41.848Z,26.56
2022-12-08T19:29:08.124Z,27.20
2022-12-08T19:31:34.457Z,27.24
2022-12-08T19:34:00.771Z,28.07
2022-12-08T19:36:27.070Z,28.79
2022-12-08T19:38:53.358Z,28.66
2022-12-08T19:41:19.622Z,28.46
2022-12-08T19:43:46.025Z,28.97
2022-12-08T19:46:12.483Z,29.60
2022-12-08T19:48:38.863Z,29.21
2022-12-08T19:51:05.139Z,29.72
2022-12-08T19:53:31.421Z,29.68
2022-12-08T19:55:57.737Z,28.31
2022-12-08T19:58:24.016Z,27.87
2022-12-08T20:00:50.290Z,28.80
2022-12-08T20:03:16.616Z,28.75
2022-12-08T20:05:42.932Z,28.69
2022-12-08T20:08:09.271Z,28.88
2022-12-08T20:10:35.646Z,28.93
2022-12-08T20:13:01.931Z,28.98
2022-12-08T20:15:28.217Z,29.49
2022-12-08T20:17:54.478Z,29.31
2022-12-08T20:20:20.825Z,30.70
2022-12-08T20:22:47.148Z,29.75
2022-12-08T20:25:13.636Z,29.92
2022-12-08T20:27:39.957Z,29.74
2022-12-08T20:30:07.837Z,29.28
2022-12-08T20:32:36.857Z,29.26
2022-12-08T20:35:03.519Z,29.19
2022-12-08T20:37:30.099Z,28.91
2022-12-08T20:39:56.407Z,28.85
2022-12-08T20:42:22.815Z,28.81
2022-12-08T20:44:49.098Z,28.63
2022-12-08T20:47:15.484Z,28.65
2022-12-08T20:49:41.804Z,29.22
2022-12-08T20:52:08.273Z,29.80
2022-12-08T20:54:34.635Z,29.62
2022-12-08T20:57:01.052Z,29.56
2022-12-08T20:59:27.407Z,30.57
2022-12-08T21:01:55.002Z,30.16
2022-12-08T21:04:21.454Z,30.18
2022-12-08T21:06:48.117Z,29.15
2022-12-08T21:09:14.599Z,29.72
2022-12-08T21:11:41.001Z,29.59
2022-12-08T21:14:07.418Z,30.14
2022-12-08T21:16:33.875Z,31.14
2022-12-08T21:19:00.342Z,31.18
2022-12-08T21:21:26.832Z,31.99
2022-12-08T21:23:53.265Z,33.23
2022-12-08T21:26:19.621Z,32.27
2022-12-08T21:28:46.020Z,32.63
2022-12-08T21:31:12.508Z,31.98
2022-12-08T21:33:38.955Z,31.20
2022-12-08T21:36:05.361Z,31.70
2022-12-08T21:38:31.817Z,31.14
2022-12-08T21:40:58.363Z,31.32
2022-12-08T21:43:24.825Z,31.88
2022-12-08T21:45:51.183Z,31.58
2022-12-08T21:48:17.538Z,31.84
2022-12-08T21:50:44.155Z,31.43
2022-12-08T21:53:10.448Z,31.23
2022-12-08T21:55:36.928Z,30.99
2022-12-08T21:58:03.373Z,31.30
2022-12-08T22:00:29.838Z,31.06
2022-12-08T22:02:56.431Z,32.15
2022-12-08T22:05:22.822Z,31.77
2022-12-08T22:07:49.349Z,31.84
2022-12-08T22:10:15.782Z,32.63
2022-12-08T22:12:42.137Z,31.93
2022-12-08T22:15:08.463Z,31.45
2022-12-08T22:17:34.993Z,32.06
2022-12-08T22:20:01.527Z,33.41
2022-12-08T22:22:28.023Z,32.39
2022-12-08T22:24:54.301Z,31.81
2022-12-08T22:27:20.666Z,32.28
2022-12-08T22:29:46.918Z,32.74
2022-12-08T22:32:13.356Z,33.17
2022-12-08T22:34:39.653Z,32.84
2022-12-08T22:37:05.905Z,33.62
2022-12-08T22:39:32.176Z,32.95
2022-12-08T22:41:58.607Z,32.37
2022-12-08T22:44:25.066Z,31.82
2022-12-08T22:46:51.372Z,32.32
2022-12-08T22:49:17.658Z,31.85
2022-12-08T22:51:43.942Z,32.12
2022-12-08T22:54:10.215Z,31.99
2022-12-08T22:56:36.575Z,32.09
2022-12-08T22:59:03.046Z,32.86
2022-12-08T23:01:29.328Z,32.80
2022-12-08T23:03:55.759Z,32.79
2022-12-08T23:06:22.135Z,32.17
2022-12-08T23:08:48.548Z,32.62
2022-12-08T23:11:15.151Z,31.96
2022-12-08T23:13:41.435Z,32.32
2022-12-08T23:16:07.891Z,32.03
2022-12-08T23:18:34.205Z,31.58
2022-12-08T23:21:00.653Z,32.78
2022-12-08T23:23:26.913Z,32.41
2022-12-08T23:25:53.356Z,31.85
2022-12-08T23:28:19.751Z,32.16
2022-12-08T23:30:46.098Z,31.29
2022-12-08T23:33:12.651Z,31.93
2022-12-08T23:35:39.025Z,32.62
2022-12-08T23:38:05.529Z,32.60
2022-12-08T23:40:32.029Z,32.08
2022-12-08T23:42:58.346Z,31.94
2022-12-08T23:45:24.715Z,33.02
2022-12-08T23:47:51.001Z,32.24
2022-12-08T23:50:17.254Z,32.76
2022-12-08T23:52:43.587Z,31.71
2022-12-08T23:55:09.868Z,31.51
2022-12-08T23:57:36.171Z,31.21
